createdAt,value
2023-01-17T00:01:10.164Z,4.1
2023-01-17T00:11:10.610Z,3.9
2023-01-17T00:31:12.271Z,3.8
2023-01-17T00:41:12.877Z,3.7
2023-01-17T00:51:13.652Z,3.5
2023-01-17T01:01:14.029Z,3.3
2023-01-17T01:11:14.326Z,3.5
2023-01-17T01:21:14.585Z,3.6
2023-01-17T01:31:14.813Z,3.6
2023-01-17T01:51:16.372Z,3.7
2023-01-17T02:01:17.286Z,3.6
2023-01-17T02:11:17.346Z,3.6
2023-01-17T02:21:18.120Z,3.5
2023-01-17T02:31:18.432Z,2.9
2023-01-17T02:41:19.109Z,2.5
2023-01-17T02:51:19.624Z,2.5
2023-01-17T03:01:19.881Z,2.3
2023-01-17T03:11:20.101Z,2.1
2023-01-17T03:21:20.271Z,1.8
2023-01-17T03:31:20.850Z,1.5
2023-01-17T03:41:21.529Z,1.5
2023-01-17T03:51:22.618Z,1.6
2023-01-17T04:21:24.095Z,1.6
2023-01-17T04:31:24.797Z,1.7
2023-01-17T04:51:26.548Z,1.9
2023-01-17T05:01:27.572Z,1.9
2023-01-17T05:11:28.583Z,1.9
2023-01-17T05:21:28.490Z,1.9
2023-01-17T05:31:28.906Z,1.9
2023-01-17T05:41:29.819Z,1.8
2023-01-17T05:51:30.853Z,1.9
2023-01-17T06:01:31.138Z,1.8
2023-01-17T06:11:31.432Z,1.9
2023-01-17T06:21:31.589Z,1.9
2023-01-17T06:31:32.357Z,1.9
2023-01-17T06:51:33.557Z,1.8
2023-01-17T07:01:34.065Z,1.7
2023-01-17T07:11:34.367Z,1.6
2023-01-17T07:21:34.885Z,1.5
2023-01-17T07:31:35.451Z,1.5
2023-01-17T07:51:36.816Z,1.6
2023-01-17T08:51:40.838Z,1.6
2023-01-17T09:01:42.101Z,1.6
2023-01-17T09:11:42.627Z,1.8
2023-01-17T09:31:43.299Z,1.9
2023-01-17T10:21:45.576Z,2.4
2023-01-17T10:31:46.020Z,2.7
2023-01-17T10:41:46.520Z,2.9
2023-01-17T11:01:50.944Z,2.9
2023-01-17T11:11:48.915Z,3.1
2023-01-17T11:21:49.642Z,3.4
2023-01-17T11:31:50.149Z,4.1
2023-01-17T11:41:50.263Z,4.7
2023-01-17T12:01:52.178Z,3.9
2023-01-17T12:21:53.152Z,4.3
2023-01-17T12:31:53.902Z,4.5
2023-01-17T13:31:57.913Z,4.4
2023-01-17T13:41:58.746Z,4.9
2023-01-17T14:02:00.394Z,5.1
2023-01-17T14:22:03.153Z,5.5
2023-01-17T14:32:01.922Z,5
2023-01-17T14:52:03.467Z,4.5
2023-01-17T15:02:07.805Z,4.4
2023-01-17T15:12:05.563Z,4.2
2023-01-17T15:22:05.908Z,4
2023-01-17T15:42:07.110Z,3.5
2023-01-17T16:22:09.281Z,2.5
2023-01-17T16:32:09.595Z,2.2
2023-01-17T16:42:10.227Z,2
2023-01-17T16:52:11.272Z,1.7
2023-01-17T17:02:11.768Z,1.5
2023-01-17T17:12:12.800Z,1.2
2023-01-17T17:32:13.824Z,0.8
2023-01-17T17:42:14.693Z,0.8
2023-01-17T17:52:15.389Z,0.6
2023-01-17T18:02:16.557Z,0.5
2023-01-17T18:32:18.587Z,0.1
2023-01-17T18:42:19.308Z,0.1
2023-01-17T18:52:20.008Z,-0.1
2023-01-17T19:02:20.379Z,-0.5
2023-01-17T19:12:20.812Z,-0.7
2023-01-17T19:42:22.960Z,-0.5
2023-01-17T19:52:24.027Z,-0.6
2023-01-17T20:32:26.592Z,-1.1
2023-01-17T21:02:28.067Z,-1.2
2023-01-17T21:12:28.532Z,-1.2
2023-01-17T21:32:30.661Z,-1.4
2023-01-17T21:42:30.820Z,-1.3
2023-01-17T21:52:31.195Z,-1.4
2023-01-17T22:02:31.799Z,-1.4
2023-01-17T22:12:32.810Z,-1.7
2023-01-17T22:22:33.024Z,-1.8
2023-01-17T22:32:33.524Z,-2
2023-01-17T22:42:33.736Z,-2.1
2023-01-17T22:52:34.581Z,-2.1
2023-01-17T23:02:34.960Z,-2.2
2023-01-17T23:12:35.155Z,-2.2
2023-01-17T23:22:36.205Z,-2.3
2023-01-17T23:52:38.077Z,-2.2
